createdAt,value
2018-12-19T00:00:33.987Z,21.94
2018-12-19T00:03:37.284Z,21.94
2018-12-19T00:06:40.436Z,21.93
2018-12-19T00:09:43.603Z,21.92
2018-12-19T00:12:46.562Z,21.91
2018-12-19T00:15:49.799Z,21.93
2018-12-19T00:18:52.802Z,21.94
2018-12-19T00:21:55.900Z,21.92
2018-12-19T00:24:58.995Z,21.92
2018-12-19T00:28:02.183Z,21.92
2018-12-19T00:31:05.159Z,21.90
2018-12-19T00:34:08.247Z,21.92
2018-12-19T00:37:13.388Z,21.92
2018-12-19T00:40:18.633Z,21.91
2018-12-19T00:43:21.646Z,21.90
2018-12-19T00:46:24.815Z,21.91
2018-12-19T00:49:27.794Z,21.91
2018-12-19T00:52:31.003Z,21.90
2018-12-19T00:55:35.100Z,21.90
2018-12-19T00:58:39.442Z,21.88
2018-12-19T01:01:47.710Z,21.89
2018-12-19T01:04:50.967Z,21.88
2018-12-19T01:07:57.502Z,21.88
2018-12-19T01:11:00.499Z,21.86
2018-12-19T01:14:03.589Z,21.87
2018-12-19T01:17:06.680Z,21.86
2018-12-19T01:20:09.774Z,21.85
2018-12-19T01:23:12.860Z,21.85
2018-12-19T01:26:15.960Z,21.86
2018-12-19T01:29:21.193Z,21.85
2018-12-19T01:32:24.501Z,21.84
2018-12-19T01:35:27.571Z,21.84
2018-12-19T01:38:30.775Z,21.84
2018-12-19T01:41:33.882Z,21.83
2018-12-19T01:44:41.782Z,21.83
2018-12-19T01:50:57.879Z,21.84
2018-12-19T01:54:01.278Z,21.83
2018-12-19T01:57:04.566Z,21.84
2018-12-19T02:00:08.129Z,21.84
2018-12-19T02:03:12.402Z,21.84
2018-12-19T02:06:15.575Z,21.85
2018-12-19T02:09:19.258Z,21.84
2018-12-19T02:12:22.439Z,21.84
2018-12-19T02:15:25.813Z,21.83
2018-12-19T02:18:30.117Z,21.85
2018-12-19T02:21:33.269Z,21.84
2018-12-19T02:24:36.591Z,21.82
2018-12-19T02:27:39.774Z,21.81
2018-12-19T02:30:43.141Z,21.82
2018-12-19T02:33:46.300Z,21.82
2018-12-19T02:36:50.459Z,21.81
2018-12-19T02:39:54.138Z,21.80
2018-12-19T02:46:07.395Z,21.80
2018-12-19T02:49:10.577Z,21.80
2018-12-19T02:52:13.813Z,21.80
2018-12-19T02:55:17.361Z,21.80
2018-12-19T02:58:20.579Z,21.78
2018-12-19T03:01:24.169Z,21.79
2018-12-19T03:04:27.564Z,21.81
2018-12-19T03:07:30.707Z,21.80
2018-12-19T03:10:34.353Z,21.80
2018-12-19T03:13:37.751Z,21.80
2018-12-19T03:16:41.163Z,21.79
2018-12-19T03:19:44.687Z,21.80
2018-12-19T03:22:48.325Z,21.79
2018-12-19T03:25:51.589Z,21.82
2018-12-19T03:28:54.694Z,21.80
2018-12-19T03:31:59.971Z,21.81
2018-12-19T03:35:03.276Z,21.80
2018-12-19T03:38:06.687Z,21.78
2018-12-19T03:41:11.217Z,21.77
2018-12-19T03:44:14.606Z,21.78
2018-12-19T03:47:17.836Z,21.77
2018-12-19T03:50:21.100Z,21.78
2018-12-19T03:53:24.279Z,21.78
2018-12-19T03:56:27.547Z,21.77
2018-12-19T03:59:31.856Z,21.77
2018-12-19T04:02:35.230Z,21.77
2018-12-19T04:05:38.501Z,21.76
2018-12-19T04:08:41.849Z,21.77
2018-12-19T04:11:45.160Z,21.76
2018-12-19T04:14:48.292Z,21.76
2018-12-19T04:17:51.540Z,21.76
2018-12-19T04:20:54.839Z,21.78
2018-12-19T04:23:57.998Z,21.77
2018-12-19T04:27:01.067Z,21.79
2018-12-19T04:30:04.436Z,21.76
2018-12-19T04:33:07.478Z,21.78
2018-12-19T04:36:10.535Z,21.78
2018-12-19T04:39:13.635Z,21.78
2018-12-19T04:42:16.784Z,21.78
2018-12-19T04:45:20.970Z,21.78
2018-12-19T04:48:25.062Z,21.79
2018-12-19T04:51:28.078Z,21.77
2018-12-19T04:54:31.159Z,21.76
2018-12-19T04:57:34.182Z,21.78
2018-12-19T05:00:37.430Z,21.76
2018-12-19T05:03:40.511Z,21.76
2018-12-19T05:06:43.504Z,21.76
2018-12-19T05:09:47.619Z,21.77
2018-12-19T05:12:50.823Z,21.76
2018-12-19T05:15:53.815Z,21.76
2018-12-19T05:18:58.019Z,21.77
2018-12-19T05:22:01.019Z,21.73
2018-12-19T05:25:04.439Z,21.74
2018-12-19T05:28:07.598Z,21.74
2018-12-19T05:31:10.870Z,21.74
2018-12-19T05:34:14.031Z,21.75
2018-12-19T05:37:17.098Z,21.75
2018-12-19T05:43:33.878Z,21.75
2018-12-19T05:46:37.102Z,21.75
2018-12-19T05:49:40.461Z,21.74
2018-12-19T05:52:43.793Z,21.74
2018-12-19T05:55:46.851Z,21.75
2018-12-19T05:58:50.139Z,21.75
2018-12-19T06:01:53.328Z,21.75
2018-12-19T06:04:56.375Z,21.74
2018-12-19T06:07:59.487Z,21.75
2018-12-19T06:11:03.669Z,21.75
2018-12-19T06:14:06.756Z,21.74
2018-12-19T06:17:09.755Z,21.75
2018-12-19T06:20:12.870Z,21.75
2018-12-19T06:23:16.167Z,21.74
2018-12-19T06:26:19.139Z,21.74
2018-12-19T06:29:23.335Z,21.73
2018-12-19T06:32:26.799Z,21.73
2018-12-19T06:35:29.942Z,21.73
2018-12-19T06:38:33.119Z,21.74
2018-12-19T06:41:36.096Z,21.72
2018-12-19T06:44:39.108Z,21.74
2018-12-19T06:47:42.265Z,21.72
2018-12-19T06:50:45.559Z,21.73
2018-12-19T06:53:48.872Z,21.71
2018-12-19T06:56:51.958Z,21.72
2018-12-19T06:59:55.035Z,21.72
2018-12-19T07:02:58.999Z,21.73
2018-12-19T07:06:02.325Z,21.72
2018-12-19T07:09:07.637Z,21.71
2018-12-19T07:12:11.203Z,21.70
2018-12-19T07:15:14.383Z,21.71
2018-12-19T07:18:18.212Z,21.71
2018-12-19T07:21:22.606Z,21.71
2018-12-19T07:24:27.798Z,21.72
2018-12-19T07:27:31.252Z,21.71
2018-12-19T07:30:35.451Z,21.70
2018-12-19T07:33:38.449Z,21.71
2018-12-19T07:36:41.827Z,21.72
2018-12-19T07:39:44.872Z,21.71
2018-12-19T07:42:48.388Z,21.72
2018-12-19T07:45:51.806Z,21.72
2018-12-19T07:48:55.529Z,21.73
2018-12-19T07:51:58.948Z,21.74
2018-12-19T07:55:02.621Z,21.72
2018-12-19T07:58:06.383Z,21.72
2018-12-19T08:01:10.099Z,21.71
2018-12-19T08:04:13.850Z,21.73
2018-12-19T08:07:17.790Z,21.73
2018-12-19T08:10:23.502Z,21.73
2018-12-19T08:13:29.030Z,21.73
2018-12-19T08:16:32.734Z,21.72
2018-12-19T08:19:37.306Z,21.71
2018-12-19T08:22:42.300Z,21.72
2018-12-19T08:25:46.668Z,21.71
2018-12-19T08:28:50.783Z,21.70
2018-12-19T08:31:53.991Z,21.68
2018-12-19T08:34:57.656Z,21.69
2018-12-19T08:38:01.367Z,21.68
2018-12-19T08:41:04.589Z,21.69
2018-12-19T08:44:10.870Z,21.72
2018-12-19T08:47:14.069Z,21.74
2018-12-19T08:50:17.278Z,21.75
2018-12-19T08:53:20.336Z,21.78
2018-12-19T08:56:23.399Z,21.86
2018-12-19T08:59:26.466Z,21.87
2018-12-19T09:02:29.679Z,21.90
2018-12-19T09:05:33.739Z,21.91
2018-12-19T09:08:36.888Z,21.93
2018-12-19T09:11:41.942Z,21.95
2018-12-19T09:14:46.036Z,21.94
2018-12-19T09:17:49.250Z,22.00
2018-12-19T09:20:52.228Z,22.00
2018-12-19T09:23:56.367Z,22.00
2018-12-19T09:26:59.466Z,22.03
2018-12-19T09:30:02.639Z,22.00
2018-12-19T09:33:05.627Z,22.01
2018-12-19T09:36:08.787Z,22.02
2018-12-19T09:39:11.916Z,22.02
2018-12-19T09:42:15.011Z,22.02
2018-12-19T09:45:17.983Z,22.04
2018-12-19T09:48:21.106Z,22.01
2018-12-19T09:51:24.263Z,22.01
2018-12-19T09:54:27.286Z,22.08
2018-12-19T09:57:31.532Z,22.01
2018-12-19T10:00:36.666Z,21.98
2018-12-19T10:03:39.887Z,21.98
2018-12-19T10:06:42.995Z,21.98
2018-12-19T10:12:59.022Z,21.96
2018-12-19T10:16:02.320Z,21.98
2018-12-19T10:19:05.312Z,22.01
2018-12-19T10:22:08.503Z,22.02
2018-12-19T10:25:14.279Z,22.03
2018-12-19T10:28:22.451Z,22.02
2018-12-19T10:31:26.647Z,22.06
2018-12-19T10:34:29.781Z,22.07
2018-12-19T10:37:33.875Z,22.07
2018-12-19T10:40:37.184Z,22.06
2018-12-19T10:43:41.721Z,22.08
2018-12-19T10:46:45.811Z,22.07
2018-12-19T10:49:50.031Z,22.07
2018-12-19T10:52:53.144Z,22.06
2018-12-19T10:55:56.122Z,22.06
2018-12-19T10:58:59.286Z,22.05
2018-12-19T11:02:03.421Z,22.04
2018-12-19T11:05:06.424Z,22.04
2018-12-19T11:08:10.047Z,22.03
2018-12-19T11:11:13.618Z,22.00
2018-12-19T11:14:16.820Z,22.00
2018-12-19T11:17:21.879Z,22.01
2018-12-19T11:20:25.054Z,22.00
2018-12-19T11:23:28.052Z,22.00
2018-12-19T11:26:31.481Z,22.03
2018-12-19T11:29:34.627Z,22.00
2018-12-19T11:32:37.811Z,22.00
2018-12-19T11:35:40.963Z,22.04
2018-12-19T11:38:44.315Z,22.10
2018-12-19T11:41:47.558Z,22.09
2018-12-19T11:44:50.706Z,22.07
2018-12-19T11:47:54.823Z,22.06
2018-12-19T11:50:57.906Z,22.05
2018-12-19T11:54:01.106Z,22.06
2018-12-19T11:57:04.696Z,22.04
2018-12-19T12:00:08.995Z,22.05
2018-12-19T12:03:12.149Z,22.01
2018-12-19T12:06:16.334Z,22.05
2018-12-19T12:09:19.363Z,22.06
2018-12-19T12:12:22.411Z,22.06
2018-12-19T12:15:25.506Z,22.06
2018-12-19T12:18:28.706Z,22.07
2018-12-19T12:21:32.727Z,22.06
2018-12-19T12:24:35.835Z,22.04
2018-12-19T12:27:38.887Z,22.04
2018-12-19T12:30:42.159Z,22.06
2018-12-19T12:33:47.407Z,22.05
2018-12-19T12:36:52.530Z,22.06
2018-12-19T12:40:10.147Z,22.05
2018-12-19T12:43:21.346Z,22.05
2018-12-19T12:46:30.018Z,22.09
2018-12-19T12:49:41.972Z,22.07
2018-12-19T12:52:45.866Z,22.09
2018-12-19T12:55:56.475Z,22.12
2018-12-19T12:59:04.809Z,22.15
2018-12-19T13:02:08.081Z,22.18
2018-12-19T13:05:12.264Z,22.22
2018-12-19T13:08:15.398Z,22.25
2018-12-19T13:11:18.390Z,22.27
2018-12-19T13:14:22.486Z,22.32
2018-12-19T13:17:25.492Z,22.35
2018-12-19T13:20:29.675Z,22.38
2018-12-19T13:23:33.720Z,22.41
2018-12-19T13:26:37.022Z,22.43
2018-12-19T13:29:40.110Z,22.47
2018-12-19T13:32:43.214Z,22.50
2018-12-19T13:35:46.304Z,22.51
2018-12-19T13:38:50.715Z,22.54
2018-12-19T13:41:53.760Z,22.58
2018-12-19T13:44:57.910Z,22.61
2018-12-19T13:48:01.010Z,22.64
2018-12-19T13:51:04.068Z,22.65
2018-12-19T13:54:08.217Z,22.68
2018-12-19T13:57:12.356Z,22.69
2018-12-19T14:00:18.496Z,22.70
2018-12-19T14:03:22.721Z,22.75
2018-12-19T14:06:25.912Z,22.75
2018-12-19T14:09:30.029Z,22.77
2018-12-19T14:12:34.046Z,22.78
2018-12-19T14:15:38.276Z,22.79
2018-12-19T14:18:41.476Z,22.81
2018-12-19T14:21:44.544Z,22.85
2018-12-19T14:24:47.740Z,22.86
2018-12-19T14:27:50.743Z,22.87
2018-12-19T14:30:55.968Z,22.91
2018-12-19T14:33:59.276Z,22.94
2018-12-19T14:37:02.477Z,22.94
2018-12-19T14:40:05.719Z,22.95
2018-12-19T14:43:08.959Z,22.99
2018-12-19T14:46:13.059Z,23.01
2018-12-19T14:49:17.080Z,23.04
2018-12-19T14:52:20.270Z,23.03
2018-12-19T14:55:23.370Z,23.03
2018-12-19T14:58:26.471Z,23.04
2018-12-19T15:01:29.444Z,23.04
2018-12-19T15:04:32.631Z,23.05
2018-12-19T15:07:36.751Z,23.07
2018-12-19T15:10:43.520Z,23.08
2018-12-19T15:13:46.603Z,23.08
2018-12-19T15:16:49.623Z,23.11
2018-12-19T15:19:52.807Z,23.12
2018-12-19T15:22:56.815Z,23.13
2018-12-19T15:26:01.027Z,23.13
2018-12-19T15:29:04.081Z,23.16
2018-12-19T15:32:08.380Z,23.16
2018-12-19T15:35:18.911Z,23.17
2018-12-19T15:38:22.238Z,23.17
2018-12-19T15:41:28.363Z,23.18
2018-12-19T15:44:32.695Z,23.21
2018-12-19T15:47:37.768Z,23.23
2018-12-19T15:50:43.588Z,23.23
2018-12-19T15:53:46.749Z,23.27
2018-12-19T15:56:50.898Z,23.26
2018-12-19T15:59:54.251Z,23.28
2018-12-19T16:02:57.295Z,23.30
2018-12-19T16:06:00.383Z,23.32
2018-12-19T16:09:03.507Z,23.31
2018-12-19T16:12:06.468Z,23.32
2018-12-19T16:15:09.467Z,23.34
2018-12-19T16:18:12.627Z,23.32
2018-12-19T16:21:15.619Z,23.33
2018-12-19T16:24:18.770Z,23.36
2018-12-19T16:27:21.908Z,23.37
2018-12-19T16:33:34.116Z,23.36
2018-12-19T16:36:41.740Z,23.37
2018-12-19T16:39:44.936Z,23.37
2018-12-19T16:42:49.031Z,23.40
2018-12-19T16:45:52.071Z,23.41
2018-12-19T16:48:56.230Z,23.41
2018-12-19T16:51:59.263Z,23.43
2018-12-19T16:55:02.680Z,23.43
2018-12-19T16:58:05.830Z,23.45
2018-12-19T17:01:10.045Z,23.45
2018-12-19T17:04:13.243Z,23.44
2018-12-19T17:07:16.356Z,23.46
2018-12-19T17:10:19.426Z,23.45
2018-12-19T17:13:22.609Z,23.48
2018-12-19T17:16:25.708Z,23.48
2018-12-19T17:19:28.863Z,23.47
2018-12-19T17:22:31.992Z,23.47
2018-12-19T17:25:35.173Z,23.50
2018-12-19T17:28:39.199Z,23.50
2018-12-19T17:31:42.320Z,23.52
2018-12-19T17:34:45.698Z,23.53
2018-12-19T17:37:48.832Z,23.53
2018-12-19T17:40:51.955Z,23.54
2018-12-19T17:43:55.224Z,23.53
2018-12-19T17:46:58.366Z,23.54
2018-12-19T17:50:01.568Z,23.55
2018-12-19T17:53:05.688Z,23.55
2018-12-19T17:56:08.670Z,23.55
2018-12-19T17:59:11.851Z,23.52
2018-12-19T18:02:16.019Z,23.52
2018-12-19T18:05:20.015Z,23.52
2018-12-19T18:08:23.084Z,23.60
2018-12-19T18:11:26.284Z,23.66
2018-12-19T18:14:29.268Z,23.66
2018-12-19T18:17:32.343Z,23.68
2018-12-19T18:20:35.655Z,23.70
2018-12-19T18:23:38.731Z,23.70
2018-12-19T18:26:45.015Z,23.71
2018-12-19T18:29:47.992Z,23.73
2018-12-19T18:32:51.196Z,23.74
2018-12-19T18:35:54.375Z,23.75
2018-12-19T18:38:57.465Z,23.77
2018-12-19T18:42:00.566Z,23.78
2018-12-19T18:45:04.352Z,23.79
2018-12-19T18:48:07.574Z,23.80
2018-12-19T18:51:10.750Z,23.81
2018-12-19T18:54:13.759Z,23.81
2018-12-19T18:57:16.843Z,23.82
2018-12-19T19:00:26.494Z,23.84
2018-12-19T19:03:29.676Z,23.86
2018-12-19T19:06:33.024Z,23.86
2018-12-19T19:09:36.176Z,23.87
2018-12-19T19:12:39.176Z,23.88
2018-12-19T19:15:42.143Z,23.92
2018-12-19T19:18:45.322Z,23.93
2018-12-19T19:21:48.333Z,23.94
2018-12-19T19:24:51.416Z,23.92
2018-12-19T19:27:54.660Z,23.95
2018-12-19T19:30:58.720Z,23.97
2018-12-19T19:34:02.842Z,23.97
2018-12-19T19:37:05.848Z,23.98
2018-12-19T19:40:10.399Z,23.98
2018-12-19T19:43:14.483Z,24.02
2018-12-19T19:46:17.764Z,24.02
2018-12-19T19:49:20.866Z,24.02
2018-12-19T19:52:23.955Z,24.07
2018-12-19T19:55:27.042Z,24.08
2018-12-19T19:58:31.164Z,24.08
2018-12-19T20:01:35.279Z,24.09
2018-12-19T20:04:38.466Z,24.09
2018-12-19T20:07:42.483Z,24.13
2018-12-19T20:10:45.574Z,24.12
2018-12-19T20:13:48.530Z,24.13
2018-12-19T20:16:56.931Z,24.13
2018-12-19T20:20:02.065Z,24.15
2018-12-19T20:23:05.118Z,24.15
2018-12-19T20:26:08.199Z,24.14
2018-12-19T20:29:12.311Z,24.16
2018-12-19T20:32:15.417Z,24.15
2018-12-19T20:35:18.492Z,24.17
2018-12-19T20:38:22.635Z,24.17
2018-12-19T20:41:25.707Z,24.17
2018-12-19T20:44:28.815Z,24.18
2018-12-19T20:47:31.901Z,24.17
2018-12-19T20:50:35.070Z,24.21
2018-12-19T20:53:38.167Z,24.20
2018-12-19T20:56:41.168Z,24.20
2018-12-19T20:59:44.253Z,24.19
2018-12-19T21:02:47.359Z,24.21
2018-12-19T21:05:50.432Z,24.21
2018-12-19T21:08:53.531Z,24.23
2018-12-19T21:11:56.642Z,24.24
2018-12-19T21:14:59.718Z,24.24
2018-12-19T21:18:11.025Z,24.26
2018-12-19T21:21:14.756Z,24.28
2018-12-19T21:24:17.908Z,24.25
2018-12-19T21:27:22.001Z,24.26
2018-12-19T21:30:24.989Z,24.26
2018-12-19T21:33:28.230Z,24.26
2018-12-19T21:36:32.335Z,24.25
2018-12-19T21:39:35.308Z,24.23
2018-12-19T21:42:38.893Z,24.19
2018-12-19T21:45:43.039Z,24.17
2018-12-19T21:48:46.017Z,24.19
2018-12-19T21:51:49.136Z,24.17
2018-12-19T21:54:52.281Z,24.14
2018-12-19T21:57:55.269Z,24.14
2018-12-19T22:00:58.497Z,24.13
2018-12-19T22:04:01.828Z,24.12
2018-12-19T22:07:05.876Z,24.11
2018-12-19T22:10:09.226Z,24.11
2018-12-19T22:13:13.457Z,24.11
2018-12-19T22:16:22.128Z,24.09
2018-12-19T22:19:25.505Z,24.10
2018-12-19T22:22:28.768Z,24.09
2018-12-19T22:25:32.971Z,24.10
2018-12-19T22:28:36.298Z,24.09
2018-12-19T22:31:39.610Z,24.11
2018-12-19T22:34:43.125Z,24.11
2018-12-19T22:37:47.539Z,24.11
2018-12-19T22:40:51.037Z,24.08
2018-12-19T22:43:56.603Z,24.08
2018-12-19T22:46:59.811Z,24.07
2018-12-19T22:50:02.916Z,24.07
2018-12-19T22:53:06.283Z,24.07
2018-12-19T22:56:09.737Z,24.08
2018-12-19T22:59:12.975Z,24.07
2018-12-19T23:02:23.645Z,24.07
2018-12-19T23:05:32.438Z,24.05
2018-12-19T23:08:36.671Z,24.06
2018-12-19T23:11:41.051Z,24.04
2018-12-19T23:14:45.459Z,24.04
2018-12-19T23:17:48.879Z,24.04
2018-12-19T23:20:53.214Z,24.05
2018-12-19T23:23:56.455Z,24.06
2018-12-19T23:26:59.944Z,24.03
2018-12-19T23:30:03.336Z,24.05
2018-12-19T23:33:06.507Z,24.04
2018-12-19T23:36:09.743Z,24.02
2018-12-19T23:39:12.849Z,24.03
2018-12-19T23:42:16.444Z,24.03
2018-12-19T23:45:19.553Z,24.03
2018-12-19T23:48:22.738Z,24.02
2018-12-19T23:51:27.117Z,24.04
2018-12-19T23:54:32.467Z,24.02
2018-12-19T23:57:35.694Z,24.02
